Time;durP1;ratioP1;P1;durP2;ratioP2;P2;SDS_P1;SDS_P2;PMS_P1;PMS_P2;Temp;Humidity;BMP_temperature;BMP_pressure;BME280_temperature;BME280_humidity;BME280_pressure;Samples;Min_cycle;Max_cycle;Signal;HPM_P1;HPM_P2
2021/12/19 00:00:22;;;;;;;46.88;27.38;;;;;;;-3.41;100.00;97259.56;6179752;23;20005;-62
2021/12/19 00:03:20;;;;;;;51.10;27.75;;;;;;;-3.40;100.00;97257.88;6179384;23;20468;-62
2021/12/19 00:11:07;;;;;;;51.53;30.13;;;;;;;-3.27;100.00;97246.53;6179395;23;20016;-62
2021/12/19 00:13:32;;;;;;;55.22;29.33;;;;;;;-3.26;100.00;97247.41;6178459;23;20005;-61
2021/12/19 00:15:58;;;;;;;57.40;25.58;;;;;;;-3.27;100.00;97245.69;6179518;23;20001;-62
2021/12/19 00:18:23;;;;;;;47.60;27.63;;;;;;;-3.33;100.00;97254.34;6178744;23;20092;-62
2021/12/19 00:20:49;;;;;;;61.10;26.30;;;;;;;-3.37;100.00;97252.69;6179178;23;20005;-61
2021/12/19 00:23:15;;;;;;;89.00;28.50;;;;;;;-3.31;100.00;97243.16;6178212;23;20005;-62
2021/12/19 00:25:41;;;;;;;69.13;29.48;;;;;;;-3.27;100.00;97243.94;6179455;23;20076;-62
2021/12/19 00:28:07;;;;;;;48.60;28.60;;;;;;;-3.36;100.00;97249.22;6179242;23;20036;-62
2021/12/19 00:30:33;;;;;;;44.90;28.25;;;;;;;-3.35;100.00;97240.63;6153068;23;20043;-62
2021/12/19 00:32:59;;;;;;;47.00;26.40;;;;;;;-3.36;100.00;97239.75;6179394;23;20375;-62
2021/12/19 00:35:24;;;;;;;48.03;28.27;;;;;;;-3.49;100.00;97239.06;6179457;23;20004;-62
2021/12/19 00:37:50;;;;;;;43.47;28.30;;;;;;;-3.55;100.00;97238.25;6179342;23;20005;-62
2021/12/19 00:40:16;;;;;;;46.92;25.00;;;;;;;-3.58;100.00;97228.88;6179420;23;20009;-62
2021/12/19 00:42:42;;;;;;;49.08;23.75;;;;;;;-3.60;100.00;97220.31;6179351;23;20068;-62
2021/12/19 00:45:20;;;;;;;46.10;27.08;;;;;;;-3.50;100.00;97208.19;6179366;23;20028;-62
2021/12/19 00:47:46;;;;;;;53.25;29.85;;;;;;;-3.63;100.00;97197.19;6179332;23;20016;-62
2021/12/19 00:50:13;;;;;;;52.15;28.27;;;;;;;-3.64;100.00;97198.06;6179365;23;20005;-62
2021/12/19 00:52:38;;;;;;;39.75;26.63;;;;;;;-3.77;100.00;97202.47;6179187;23;20097;-62
2021/12/19 00:55:04;;;;;;;60.00;27.52;;;;;;;-3.85;100.00;97196.56;6178045;23;20453;-62
2021/12/19 00:57:30;;;;;;;41.65;25.67;;;;;;;-3.89;100.00;97188.00;6179350;23;20406;-63
2021/12/19 00:59:55;;;;;;;44.03;27.80;;;;;;;-3.84;100.00;97186.25;6179387;23;20008;-62
2021/12/19 01:02:21;;;;;;;35.88;24.02;;;;;;;-3.99;100.00;97182.09;6178814;23;20388;-62
2021/12/19 01:04:47;;;;;;;47.80;26.25;;;;;;;-3.93;100.00;97181.19;6179199;23;20050;-61
2021/12/19 01:07:12;;;;;;;46.28;26.10;;;;;;;-4.00;100.00;97184.72;6178917;23;20005;-62
2021/12/19 01:09:38;;;;;;;56.08;27.73;;;;;;;-4.08;100.00;97193.38;6152618;23;20027;-62
2021/12/19 01:12:04;;;;;;;38.33;27.20;;;;;;;-4.12;100.00;97189.09;6179195;23;20008;-62
2021/12/19 01:14:30;;;;;;;43.55;24.20;;;;;;;-4.09;100.00;97193.38;6179075;23;20384;-62
2021/12/19 01:16:55;;;;;;;40.75;25.25;;;;;;;-4.08;100.00;97188.22;6179293;23;20009;-62
2021/12/19 01:19:22;;;;;;;39.42;22.92;;;;;;;-4.14;100.00;97190.84;6179051;23;20016;-62
2021/12/19 01:21:49;;;;;;;38.53;25.83;;;;;;;-4.25;100.00;97184.97;6179224;23;20445;-62
2021/12/19 01:24:14;;;;;;;37.88;24.30;;;;;;;-4.19;100.00;97190.91;6177516;23;20008;-62
2021/12/19 01:26:42;;;;;;;43.28;23.38;;;;;;;-4.02;100.00;97197.56;6151303;23;20009;-62
2021/12/19 01:29:08;;;;;;;53.50;24.67;;;;;;;-4.00;100.00;97195.00;6179383;23;20159;-62
2021/12/19 01:31:33;;;;;;;43.97;22.83;;;;;;;-4.08;100.00;97195.94;6179263;23;20001;-62
2021/12/19 01:33:59;;;;;;;34.55;25.25;;;;;;;-4.12;100.00;97207.09;6178986;23;20029;-62
2021/12/19 01:36:24;;;;;;;36.53;22.73;;;;;;;-4.05;100.00;97197.63;6178934;23;20463;-62
2021/12/19 01:38:49;;;;;;;35.40;25.33;;;;;;;-4.00;100.00;97195.00;6178954;23;20001;-62
2021/12/19 01:41:15;;;;;;;36.78;22.95;;;;;;;-3.88;100.00;97192.28;6178683;23;20334;-62
2021/12/19 01:43:40;;;;;;;47.45;25.05;;;;;;;-3.76;100.00;97191.28;6178970;23;20012;-62
2021/12/19 01:46:06;;;;;;;55.20;26.05;;;;;;;-3.75;100.00;97193.88;6178758;23;20268;-62
2021/12/19 01:48:31;;;;;;;40.92;25.15;;;;;;;-3.81;100.00;97187.94;6178988;23;20005;-62
2021/12/19 01:50:57;;;;;;;51.40;25.27;;;;;;;-3.83;100.00;97192.25;6178686;23;20153;-62
2021/12/19 01:53:22;;;;;;;62.13;26.33;;;;;;;-3.78;100.00;97187.88;6177141;23;20106;-62
2021/12/19 01:55:49;;;;;;;36.83;23.73;;;;;;;-3.98;100.00;97200.97;6178729;23;20008;-62
2021/12/19 01:58:16;;;;;;;50.35;24.58;;;;;;;-4.03;100.00;97195.88;6178831;23;20386;-62
2021/12/19 02:00:50;;;;;;;37.22;25.27;;;;;;;-4.11;100.00;97190.81;6179056;23;20311;-62
2021/12/19 02:03:16;;;;;;;41.90;26.17;;;;;;;-4.15;100.00;97186.56;6178612;23;20016;-62
2021/12/19 02:05:42;;;;;;;51.35;24.48;;;;;;;-4.21;100.00;97190.03;6178759;23;20463;-62
2021/12/19 02:08:09;;;;;;;44.78;28.05;;;;;;;-4.28;100.00;97188.41;6178540;23;20009;-62
2021/12/19 02:10:36;;;;;;;49.10;24.90;;;;;;;-4.29;100.00;97191.84;6178841;23;20421;-62
2021/12/19 02:13:03;;;;;;;40.53;24.60;;;;;;;-4.25;100.00;97200.38;6178719;23;20002;-62
2021/12/19 02:15:31;;;;;;;42.20;25.35;;;;;;;-4.23;100.00;97189.19;6178681;23;20009;-62
2021/12/19 02:18:00;;;;;;;40.90;25.67;;;;;;;-4.16;100.00;97190.00;6176875;23;20009;-62
2021/12/19 02:20:31;;;;;;;39.00;25.02;;;;;;;-4.25;100.00;97185.78;6178512;22;20012;-62
2021/12/19 02:22:57;;;;;;;42.28;26.17;;;;;;;-4.30;100.00;97189.28;6178692;23;20073;-62
2021/12/19 02:25:22;;;;;;;50.80;28.70;;;;;;;-4.30;100.00;97182.41;6152217;22;20437;-62
2021/12/19 02:27:48;;;;;;;50.40;26.52;;;;;;;-4.29;100.00;97178.16;6178981;23;20036;-62
2021/12/19 02:30:13;;;;;;;38.45;23.98;;;;;;;-4.14;100.00;97182.28;6179926;23;20056;-62
2021/12/19 02:32:40;;;;;;;33.85;24.60;;;;;;;-4.21;100.00;97176.34;6179826;23;20344;-62
2021/12/19 02:35:12;;;;;;;35.55;24.13;;;;;;;-4.22;100.00;97178.03;6179967;23;20501;-62
2021/12/19 02:48:29;;;;;;;49.10;24.02;;;;;;;-4.72;100.00;97162.22;6180272;23;20109;-62
2021/12/19 02:50:55;;;;;;;36.33;22.92;;;;;;;-4.72;100.00;97161.34;6180061;22;20015;-62
2021/12/19 02:53:35;;;;;;;34.38;25.58;;;;;;;-4.69;100.00;97158.75;6179775;23;20075;-62
2021/12/19 02:56:03;;;;;;;39.00;25.73;;;;;;;-4.71;100.00;97156.22;6179591;23;20445;-63
2021/12/19 02:58:29;;;;;;;77.60;32.28;;;;;;;-4.74;100.00;97156.25;6179700;23;20005;-62
2021/12/19 03:00:57;;;;;;;52.58;35.95;;;;;;;-4.75;100.00;97151.97;6179903;23;20062;-61
2021/12/19 03:03:22;;;;;;;88.78;37.50;;;;;;;-4.76;100.00;97155.38;6179583;23;20369;-62
2021/12/19 03:05:48;;;;;;;60.30;26.33;;;;;;;-4.69;100.00;97148.47;6179840;23;20012;-62
2021/12/19 03:08:14;;;;;;;88.75;24.30;;;;;;;-4.61;100.00;97155.25;6179675;23;20130;-62
2021/12/19 03:18:52;;;;;;;39.67;24.13;;;;;;;-4.80;100.00;97140.84;6137404;23;20009;-62
2021/12/19 03:21:19;;;;;;;32.95;24.58;;;;;;;-4.84;100.00;97144.31;6179666;23;20455;-61
2021/12/19 03:23:45;;;;;;;69.97;26.33;;;;;;;-4.90;100.00;97138.38;6179699;23;20322;-61
2021/12/19 03:26:11;;;;;;;34.70;23.45;;;;;;;-4.83;100.00;97140.88;6153399;23;20058;-62
2021/12/19 03:28:36;;;;;;;55.05;24.73;;;;;;;-4.91;100.00;97146.94;6179613;23;20051;-61
2021/12/19 03:31:03;;;;;;;75.15;24.95;;;;;;;-4.96;100.00;97142.69;6179755;23;20059;-62
2021/12/19 03:33:30;;;;;;;32.75;23.15;;;;;;;-4.98;100.00;97137.56;6179329;23;20008;-62
2021/12/19 03:35:55;;;;;;;35.65;25.50;;;;;;;-4.93;100.00;97135.81;6179686;23;20005;-62
2021/12/19 03:38:21;;;;;;;42.47;24.70;;;;;;;-4.88;100.00;97122.91;6179346;23;20005;-62
2021/12/19 03:40:54;;;;;;;37.47;23.42;;;;;;;-4.90;100.00;97125.53;6178910;23;20012;-62
2021/12/19 03:43:23;;;;;;;54.83;25.98;;;;;;;-4.94;100.00;97118.72;6178781;23;20009;-62
2021/12/19 03:45:49;;;;;;;30.60;24.13;;;;;;;-4.96;100.00;97115.31;6179240;23;20057;-62
2021/12/19 03:48:16;;;;;;;37.70;25.65;;;;;;;-4.94;100.00;97112.69;6179366;23;20009;-62
2021/12/19 03:50:45;;;;;;;25.88;21.90;;;;;;;-4.97;100.00;97108.47;6179452;23;20021;-62
2021/12/19 03:53:12;;;;;;;29.98;22.92;;;;;;;-4.99;100.00;97105.03;6153224;22;20031;-62
2021/12/19 03:55:37;;;;;;;27.95;22.30;;;;;;;-5.02;100.00;97105.06;6179527;23;20036;-62
2021/12/19 03:58:03;;;;;;;31.23;24.40;;;;;;;-5.08;100.00;97110.25;6179587;23;20008;-62
2021/12/19 04:00:31;;;;;;;27.35;21.55;;;;;;;-5.11;100.00;97108.53;6179460;23;20005;-62
2021/12/19 04:03:09;;;;;;;23.33;18.77;;;;;;;-5.10;100.00;97099.13;6204290;22;20015;-62
2021/12/19 04:05:38;;;;;;;21.13;18.17;;;;;;;-5.12;100.00;97099.13;6306002;22;20003;-62
2021/12/19 04:08:04;;;;;;;23.17;19.75;;;;;;;-5.08;100.00;97099.97;6306026;22;20007;-61
2021/12/19 04:10:30;;;;;;;22.83;18.42;;;;;;;-5.07;100.00;97101.66;6306008;22;20693;-62
2021/12/19 04:12:55;;;;;;;23.35;19.20;;;;;;;-5.11;100.00;97095.69;6306184;22;20003;-62
2021/12/19 04:15:22;;;;;;;28.02;22.35;;;;;;;-5.06;100.00;97101.66;6306085;22;20380;-62
2021/12/19 04:17:48;;;;;;;28.15;21.73;;;;;;;-5.04;100.00;97091.38;6305986;22;19995;-62
2021/12/19 04:20:15;;;;;;;32.30;24.75;;;;;;;-4.98;100.00;97093.88;6304430;22;20052;-62
2021/12/19 04:22:42;;;;;;;37.90;25.67;;;;;;;-4.95;100.00;97087.88;6305847;22;20000;-62
2021/12/19 04:25:08;;;;;;;37.10;25.35;;;;;;;-4.93;100.00;97074.16;6306120;22;20007;-62
2021/12/19 04:27:34;;;;;;;32.45;25.02;;;;;;;-4.92;100.00;97075.88;6305772;22;20004;-62
2021/12/19 04:30:00;;;;;;;36.35;24.55;;;;;;;-4.94;100.00;97093.00;6305874;22;20010;-62
2021/12/19 04:32:31;;;;;;;34.63;23.95;;;;;;;-4.98;100.00;97091.31;6305875;22;20007;-62
2021/12/19 04:34:56;;;;;;;31.80;23.20;;;;;;;-5.05;100.00;97084.53;6306022;22;20013;-62
2021/12/19 04:40:18;;;;;;;32.92;23.80;;;;;;;-5.11;100.00;97092.28;6306325;22;20014;-62
2021/12/19 04:53:37;;;;;;;23.08;18.23;;;;;;;-5.11;100.00;97079.44;6305629;22;20025;-63
2021/12/19 05:14:51;;;;;;;34.55;26.52;;;;;;;-5.09;100.00;97070.00;6179111;23;20015;-62
2021/12/19 05:17:22;;;;;;;37.90;26.73;;;;;;;-5.12;100.00;97067.47;6179207;23;20005;-62
2021/12/19 05:20:09;;;;;;;32.28;22.48;;;;;;;-5.13;100.00;97058.06;6179145;23;20006;-62
2021/12/19 05:22:42;;;;;;;23.98;18.60;;;;;;;-5.12;100.00;97062.34;6178227;22;20001;-62
2021/12/19 05:25:14;;;;;;;31.27;23.60;;;;;;;-5.14;100.00;97058.94;6178884;23;20024;-62
2021/12/19 05:27:51;;;;;;;19.67;16.00;;;;;;;-5.18;100.00;97061.53;6178892;23;20008;-62
2021/12/19 05:30:18;;;;;;;18.50;12.73;;;;;;;-5.18;100.00;97064.09;6178731;23;20009;-62
2021/12/19 05:32:45;;;;;;;17.02;13.70;;;;;;;-5.19;100.00;97046.13;6178739;23;19997;-62
2021/12/19 05:35:15;;;;;;;19.48;13.73;;;;;;;-5.18;100.00;97043.56;6178772;23;20368;-62
2021/12/19 05:45:53;;;;;;;16.65;14.15;;;;;;;-5.26;100.00;97022.19;6178671;23;20015;-61
2021/12/19 05:48:19;;;;;;;19.63;16.00;;;;;;;-5.26;100.00;97023.94;6178570;23;20087;-62
2021/12/19 05:50:44;;;;;;;21.13;15.82;;;;;;;-5.28;100.00;97015.38;6179001;23;20024;-62
2021/12/19 05:53:11;;;;;;;19.60;15.48;;;;;;;-5.30;100.00;97025.66;6178616;23;20008;-62
2021/12/19 05:55:36;;;;;;;16.45;14.05;;;;;;;-5.30;100.00;97024.81;6178970;23;20017;-62
2021/12/19 05:58:02;;;;;;;21.85;17.17;;;;;;;-5.31;100.00;97023.97;6178523;23;20342;-62
2021/12/19 06:00:27;;;;;;;23.27;16.85;;;;;;;-5.32;100.00;97029.97;6178656;23;20016;-62
2021/12/19 06:02:53;;;;;;;20.80;16.08;;;;;;;-5.35;100.00;97030.81;6178805;23;20445;-62
2021/12/19 06:05:18;;;;;;;22.55;16.98;;;;;;;-5.34;100.00;97029.13;6179908;23;20031;-62
2021/12/19 06:07:44;;;;;;;19.38;15.93;;;;;;;-5.33;100.00;97023.97;6153217;23;20545;-62
2021/12/19 06:10:11;;;;;;;21.38;16.90;;;;;;;-5.29;100.00;97019.66;6179740;23;20012;-62
2021/12/19 06:12:37;;;;;;;23.65;17.45;;;;;;;-5.28;100.00;97020.53;6179878;23;20028;-62
2021/12/19 06:15:09;;;;;;;22.38;17.30;;;;;;;-5.26;100.00;97024.75;6179774;23;20058;-62
2021/12/19 06:17:35;;;;;;;20.65;16.88;;;;;;;-5.24;100.00;97010.19;6179781;23;20015;-62
2021/12/19 06:20:00;;;;;;;15.20;13.50;;;;;;;-5.24;100.00;97006.78;6179852;23;19997;-62
2021/12/19 06:22:26;;;;;;;16.65;13.07;;;;;;;-5.28;100.00;97008.53;6179408;23;20471;-62
2021/12/19 06:24:51;;;;;;;21.60;14.43;;;;;;;-5.32;100.00;97006.84;6153260;23;20035;-62
2021/12/19 06:27:17;;;;;;;19.33;14.95;;;;;;;-5.36;100.00;97000.88;6179627;23;20005;-62
2021/12/19 06:29:42;;;;;;;14.30;12.50;;;;;;;-5.36;100.00;97005.19;6179462;23;20092;-63
2021/12/19 06:32:08;;;;;;;16.30;12.32;;;;;;;-5.36;100.00;96998.31;6153209;23;20011;-62
2021/12/19 06:34:33;;;;;;;17.15;12.80;;;;;;;-5.35;100.00;97000.00;6179756;23;20031;-62
2021/12/19 06:36:59;;;;;;;19.40;14.77;;;;;;;-5.32;100.00;96999.16;6179467;23;20012;-62
2021/12/19 06:39:25;;;;;;;17.83;13.88;;;;;;;-5.26;100.00;96998.25;6179739;23;20012;-62
2021/12/19 06:41:50;;;;;;;18.67;14.55;;;;;;;-5.26;100.00;97004.22;6179482;23;20076;-62
2021/12/19 06:44:16;;;;;;;18.55;14.30;;;;;;;-5.29;100.00;96999.13;6179672;23;20009;-62
2021/12/19 06:46:42;;;;;;;16.98;13.45;;;;;;;-5.28;100.00;97005.97;6179444;23;20041;-62
2021/12/19 06:49:07;;;;;;;18.70;14.75;;;;;;;-5.25;100.00;96992.25;6179204;23;20009;-62
2021/12/19 06:51:34;;;;;;;19.17;15.00;;;;;;;-5.26;100.00;97000.81;6179028;23;20002;-62
2021/12/19 06:53:59;;;;;;;18.80;14.38;;;;;;;-5.28;100.00;96993.13;6179738;23;20064;-62
2021/12/19 06:56:25;;;;;;;18.95;15.15;;;;;;;-5.28;100.00;96994.84;6152733;22;20134;-62
2021/12/19 06:58:51;;;;;;;20.60;15.63;;;;;;;-5.28;100.00;96984.56;6179041;23;20004;-62
2021/12/19 07:01:16;;;;;;;20.45;14.48;;;;;;;-5.34;100.00;96991.44;6179315;23;20005;-62
2021/12/19 07:03:42;;;;;;;17.80;14.75;;;;;;;-5.37;100.00;96993.22;6179270;23;20028;-62
2021/12/19 07:06:07;;;;;;;17.27;14.93;;;;;;;-5.38;100.00;96994.91;6179188;23;20012;-61
2021/12/19 07:08:33;;;;;;;20.30;16.10;;;;;;;-5.38;100.00;96994.91;6179472;23;20005;-62
2021/12/19 07:10:58;;;;;;;19.70;15.30;;;;;;;-5.41;100.00;96987.25;6179559;23;20005;-62
2021/12/19 07:13:23;;;;;;;17.50;15.05;;;;;;;-5.42;100.00;96997.50;6179414;23;20012;-62
2021/12/19 07:15:51;;;;;;;19.55;14.85;;;;;;;-5.44;100.00;96996.66;6179323;23;20029;-62
2021/12/19 07:18:17;;;;;;;15.80;14.18;;;;;;;-5.47;100.00;96992.44;6179491;23;20094;-62
2021/12/19 07:20:43;;;;;;;18.85;15.43;;;;;;;-5.49;100.00;96987.28;6179446;23;20082;-62
2021/12/19 07:23:13;;;;;;;18.85;15.20;;;;;;;-5.39;100.00;96989.81;6179200;23;20009;-62
2021/12/19 07:25:40;;;;;;;18.60;15.18;;;;;;;-5.49;100.00;96989.84;6179120;23;20062;-62
2021/12/19 07:28:06;;;;;;;19.90;15.73;;;;;;;-5.50;100.00;96995.03;6179320;23;20001;-63
2021/12/19 07:30:35;;;;;;;19.10;15.63;;;;;;;-5.47;100.00;97000.13;6152848;23;20369;-63
2021/12/19 07:33:01;;;;;;;22.00;17.95;;;;;;;-5.47;100.00;97000.97;6176724;23;20510;-63
2021/12/19 07:35:26;;;;;;;34.97;31.30;;;;;;;-5.44;100.00;97001.78;6178309;23;20009;-62
2021/12/19 07:37:54;;;;;;;30.30;23.92;;;;;;;-5.42;100.00;97007.78;6178817;23;20332;-63
2021/12/19 07:40:21;;;;;;;31.58;23.63;;;;;;;-5.38;100.00;97007.75;6179173;23;20005;-64
2021/12/19 07:42:47;;;;;;;32.53;28.23;;;;;;;-5.30;100.00;97002.56;6179085;23;20005;-63
2021/12/19 07:45:14;;;;;;;33.83;26.08;;;;;;;-5.26;100.00;97006.78;6178741;23;20005;-63
2021/12/19 07:47:41;;;;;;;28.30;24.63;;;;;;;-5.25;100.00;97005.91;6178953;23;20009;-65
2021/12/19 07:50:09;;;;;;;28.27;23.60;;;;;;;-5.25;100.00;97008.50;6179362;23;20080;-63
2021/12/19 07:52:34;;;;;;;27.88;23.63;;;;;;;-5.24;100.00;96999.94;6179150;23;20012;-63
2021/12/19 07:55:01;;;;;;;40.38;32.50;;;;;;;-5.24;100.00;96994.78;6179433;23;20425;-63
2021/12/19 07:57:26;;;;;;;32.72;28.92;;;;;;;-5.21;100.00;97001.63;6179438;23;20012;-64
2021/12/19 07:59:51;;;;;;;33.97;28.95;;;;;;;-5.20;100.00;97001.59;6179207;23;20005;-63
2021/12/19 08:02:17;;;;;;;33.75;27.00;;;;;;;-5.16;100.00;96999.03;6179011;23;20082;-63
2021/12/19 08:04:42;;;;;;;31.05;25.95;;;;;;;-5.13;100.00;96993.84;6179081;23;20005;-63
2021/12/19 08:07:11;;;;;;;33.90;27.08;;;;;;;-5.08;100.00;96999.78;6178167;23;20045;-62
2021/12/19 08:09:39;;;;;;;35.08;27.90;;;;;;;-5.03;100.00;96987.75;6178643;23;20025;-62
2021/12/19 08:12:06;;;;;;;31.33;26.13;;;;;;;-4.93;100.00;96993.66;6152167;23;20036;-63
2021/12/19 08:14:32;;;;;;;37.90;29.67;;;;;;;-4.84;100.00;96988.44;6178416;23;20008;-62
2021/12/19 08:16:57;;;;;;;46.90;34.05;;;;;;;-4.79;100.00;96985.81;6178151;23;20009;-64
2021/12/19 08:19:23;;;;;;;40.53;29.98;;;;;;;-4.75;100.00;96974.66;6178580;23;20082;-64
2021/12/19 08:21:48;;;;;;;43.72;33.53;;;;;;;-4.67;100.00;96977.97;6176807;23;20337;-62
2021/12/19 08:24:14;;;;;;;40.97;30.80;;;;;;;-4.63;100.00;96974.50;6175261;23;20013;-63
2021/12/19 08:26:42;;;;;;;49.22;32.17;;;;;;;-4.56;100.00;96969.28;6176398;23;20005;-63
2021/12/19 08:29:08;;;;;;;42.97;31.35;;;;;;;-4.52;100.00;96974.38;6176300;23;20466;-63
2021/12/19 08:31:34;;;;;;;42.58;31.48;;;;;;;-4.44;100.00;96974.28;6176933;23;20017;-65
2021/12/19 08:33:59;;;;;;;44.85;29.30;;;;;;;-4.37;100.00;96975.06;6178266;22;20348;-60
2021/12/19 08:36:25;;;;;;;43.10;29.20;;;;;;;-4.32;100.00;96978.41;6179183;23;20032;-60
2021/12/19 08:38:51;;;;;;;48.90;29.63;;;;;;;-4.24;100.00;96973.19;6179047;23;20023;-61
2021/12/19 08:41:16;;;;;;;47.47;30.48;;;;;;;-4.18;100.00;96976.53;6179288;23;20072;-57
2021/12/19 08:43:41;;;;;;;47.38;31.13;;;;;;;-4.12;100.00;96975.59;6178845;23;20012;-60
2021/12/19 08:46:10;;;;;;;53.50;35.20;;;;;;;-4.00;100.00;96979.72;6178492;23;20013;-60
2021/12/19 08:48:36;;;;;;;53.80;36.13;;;;;;;-3.92;100.00;96971.88;6178058;23;20437;-60
2021/12/19 08:51:02;;;;;;;59.83;40.75;;;;;;;-3.90;100.00;96965.00;6178524;23;20001;-60
2021/12/19 08:53:28;;;;;;;59.72;40.38;;;;;;;-3.86;100.00;96969.25;6179229;23;20001;-60
2021/12/19 08:55:53;;;;;;;57.63;38.47;;;;;;;-3.81;100.00;96959.72;6178910;23;20012;-58
2021/12/19 08:58:18;;;;;;;59.45;37.42;;;;;;;-3.75;100.00;96961.38;6179086;23;20013;-60
2021/12/19 09:00:44;;;;;;;60.42;37.53;;;;;;;-3.69;100.00;96955.25;6178955;23;20001;-59
2021/12/19 09:03:09;;;;;;;62.28;39.85;;;;;;;-3.66;100.00;96957.78;6178637;23;20013;-60
2021/12/19 09:05:35;;;;;;;59.47;38.28;;;;;;;-3.61;100.00;96956.00;6177194;23;20080;-59
2021/12/19 09:08:01;;;;;;;55.22;36.08;;;;;;;-3.53;100.00;96958.47;6178035;23;20095;-57
2021/12/19 09:10:27;;;;;;;63.72;37.45;;;;;;;-3.39;100.00;96963.38;6178685;23;20082;-57
2021/12/19 09:12:53;;;;;;;66.88;39.40;;;;;;;-3.33;100.00;96955.56;6178787;23;20057;-59
2021/12/19 09:15:19;;;;;;;68.43;39.30;;;;;;;-3.24;100.00;96954.53;6178746;23;20005;-52
2021/12/19 09:17:45;;;;;;;81.60;43.47;;;;;;;-3.16;100.00;96955.25;6178745;23;20001;-59
2021/12/19 09:20:11;;;;;;;66.97;40.35;;;;;;;-3.03;100.00;96956.75;6178158;23;20054;-58
2021/12/19 09:22:37;;;;;;;72.07;42.95;;;;;;;-2.92;100.00;96961.72;6177920;23;20088;-58
2021/12/19 09:25:04;;;;;;;83.40;45.70;;;;;;;-2.82;100.00;96958.94;6178704;23;20024;-52
2021/12/19 09:27:29;;;;;;;76.00;45.22;;;;;;;-2.73;100.00;96958.78;6177827;23;20015;-52
2021/12/19 09:29:55;;;;;;;73.95;44.97;;;;;;;-2.67;100.00;96948.34;6177274;23;20055;-56
2021/12/19 09:32:20;;;;;;;69.75;41.00;;;;;;;-2.56;100.00;96950.72;6177382;23;20005;-53
2021/12/19 09:34:45;;;;;;;61.65;38.58;;;;;;;-2.43;100.00;96951.31;6177740;23;20549;-54
2021/12/19 09:37:12;;;;;;;63.78;37.80;;;;;;;-2.24;100.00;96943.22;6177233;23;20005;-59
2021/12/19 09:39:38;;;;;;;71.53;40.92;;;;;;;-2.05;100.00;96944.50;6177581;23;20016;-60
2021/12/19 09:42:09;;;;;;;65.35;39.35;;;;;;;-1.89;100.00;96937.28;6178138;23;20020;-60
2021/12/19 09:44:36;;;;;;;60.33;38.50;;;;;;;-1.84;100.00;96938.88;6178863;23;20030;-60
2021/12/19 09:47:02;;;;;;;60.78;36.65;;;;;;;-1.84;100.00;96925.97;6178328;23;20012;-59
2021/12/19 09:49:27;;;;;;;61.03;35.83;;;;;;;-1.81;100.00;96921.59;6178831;23;20426;-60
2021/12/19 09:51:53;;;;;;;58.72;41.38;;;;;;;-1.76;100.00;96924.09;6178920;23;20009;-60
2021/12/19 09:54:19;;;;;;;61.50;39.53;;;;;;;-1.58;100.00;96928.78;6177131;23;20345;-60
2021/12/19 09:56:45;;;;;;;58.88;38.17;;;;;;;-1.61;100.00;96928.03;6178349;22;20011;-59
2021/12/19 09:59:18;;;;;;;59.35;38.72;;;;;;;-1.61;100.00;96923.69;6178359;23;20009;-60
2021/12/19 10:01:44;;;;;;;78.80;49.35;;;;;;;-1.58;100.00;96928.78;6178077;23;20013;-60
2021/12/19 10:04:33;;;;;;;66.82;41.53;;;;;;;-1.33;100.00;96922.19;6178155;23;20017;-57
2021/12/19 10:07:03;;;;;;;55.15;37.28;;;;;;;-1.10;100.00;96924.19;6178311;23;20066;-59
2021/12/19 10:09:29;;;;;;;56.25;36.25;;;;;;;-1.07;100.00;96918.06;6177359;23;20134;-60
2021/12/19 10:12:11;;;;;;;49.95;36.10;;;;;;;-1.16;100.00;96922.59;6177371;23;20497;-60
2021/12/19 10:14:37;;;;;;;54.25;36.40;;;;;;;-1.03;100.00;96917.09;6177344;23;20009;-60
2021/12/19 10:17:16;;;;;;;49.67;35.72;;;;;;;-1.01;100.00;96912.72;6151526;23;20009;-60
2021/12/19 10:19:44;;;;;;;50.75;37.40;;;;;;;-1.02;100.00;96911.03;6177965;23;20005;-60
2021/12/19 10:22:27;;;;;;;47.75;34.22;;;;;;;-0.92;100.00;96904.75;6177507;23;19997;-60
2021/12/19 10:24:55;;;;;;;57.90;37.85;;;;;;;-0.67;100.00;96901.50;6151270;23;20053;-61
2021/12/19 10:27:41;;;;;;;48.67;34.28;;;;;;;-0.41;100.00;96894.72;6177744;23;20041;-61
2021/12/19 10:30:27;;;;;;;47.05;34.10;;;;;;;-0.33;99.27;96890.19;6176765;23;20009;-61
2021/12/19 10:32:55;;;;;;;46.55;31.88;;;;;;;-0.11;99.63;96889.53;6176643;23;20452;-60
2021/12/19 10:35:27;;;;;;;44.65;33.10;;;;;;;0.13;100.00;96877.56;6177467;23;20001;-60
2021/12/19 10:37:53;;;;;;;64.63;47.10;;;;;;;0.34;100.00;96882.09;6177109;23;20005;-59
2021/12/19 10:40:19;;;;;;;50.10;36.65;;;;;;;0.61;97.88;96874.31;6176623;23;20013;-60
2021/12/19 10:42:52;;;;;;;42.40;32.22;;;;;;;0.35;95.43;96874.28;6176265;23;20068;-56
2021/12/19 10:45:30;;;;;;;38.05;29.95;;;;;;;0.05;93.92;96865.72;6175725;23;20051;-58
2021/12/19 10:48:32;;;;;;;40.70;31.83;;;;;;;-0.08;95.19;96862.69;6176791;23;20009;-60
2021/12/19 10:51:07;;;;;;;51.20;41.40;;;;;;;0.14;97.27;96860.28;6180081;23;20032;-59
2021/12/19 10:53:39;;;;;;;60.65;42.08;;;;;;;0.08;97.54;96868.22;6178981;23;20011;-60
2021/12/19 10:56:10;;;;;;;48.50;36.30;;;;;;;-0.04;97.02;96865.13;6179258;23;20318;-59
2021/12/19 10:58:39;;;;;;;42.80;33.10;;;;;;;-0.25;97.09;96858.88;6178382;23;20083;-59
2021/12/19 11:01:05;;;;;;;43.58;32.90;;;;;;;-0.31;97.07;96848.69;6178333;23;20005;-59
2021/12/19 11:03:39;;;;;;;43.42;34.88;;;;;;;-0.31;97.55;96856.47;6177144;23;20430;-61
2021/12/19 11:06:23;;;;;;;53.25;41.30;;;;;;;-0.35;98.43;96847.94;6177093;23;20016;-60
2021/12/19 11:08:51;;;;;;;41.03;32.53;;;;;;;-0.39;97.35;96848.09;6177390;23;20016;-59
2021/12/19 11:11:41;;;;;;;40.53;31.65;;;;;;;-0.40;98.20;96844.66;6176806;23;20016;-60
2021/12/19 11:14:16;;;;;;;40.90;30.77;;;;;;;-0.44;98.20;96840.47;6176968;23;20005;-60
2021/12/19 11:16:42;;;;;;;40.75;31.85;;;;;;;-0.41;98.25;96844.72;6176681;23;20480;-60
2021/12/19 11:19:08;;;;;;;45.85;37.20;;;;;;;-0.12;97.16;96836.03;6177057;23;20058;-60
2021/12/19 11:21:35;;;;;;;49.83;35.78;;;;;;;0.04;95.52;96844.19;6176136;23;20043;-60
2021/12/19 11:24:11;;;;;;;40.40;33.55;;;;;;;-0.11;96.21;96837.75;6176630;23;20001;-61
2021/12/19 11:26:39;;;;;;;48.25;37.53;;;;;;;-0.06;96.33;96829.81;6176118;23;20453;-60
2021/12/19 11:29:06;;;;;;;43.92;33.38;;;;;;;0.13;96.43;96823.16;6175170;23;20005;-60
2021/12/19 11:31:33;;;;;;;45.30;33.75;;;;;;;0.22;96.28;96819.44;6176521;23;20039;-60
2021/12/19 11:34:04;;;;;;;38.75;32.08;;;;;;;0.24;93.75;96817.63;6177934;23;20001;-60
2021/12/19 11:36:37;;;;;;;38.58;30.52;;;;;;;0.33;94.75;96831.16;6178343;23;20066;-60
2021/12/19 11:39:06;;;;;;;38.95;30.30;;;;;;;0.63;93.71;96818.09;6177889;23;20025;-60
2021/12/19 11:41:32;;;;;;;47.78;36.45;;;;;;;1.03;91.13;96808.03;6178132;23;20084;-60
2021/12/19 11:44:02;;;;;;;44.20;36.42;;;;;;;1.11;90.75;96806.03;6178103;23;20338;-59
2021/12/19 11:46:44;;;;;;;41.33;34.28;;;;;;;1.29;88.19;96802.72;6152061;23;20032;-60
2021/12/19 11:49:14;;;;;;;51.88;41.15;;;;;;;1.34;89.17;96793.97;6178306;23;20001;-60
2021/12/19 11:51:40;;;;;;;43.03;34.88;;;;;;;1.44;88.75;96784.91;6178086;23;20438;-60
2021/12/19 11:54:19;;;;;;;39.03;32.45;;;;;;;1.58;88.37;96773.97;6177771;23;20012;-60
2021/12/19 11:57:07;;;;;;;41.20;32.33;;;;;;;1.81;87.30;96760.09;6178125;23;20058;-59
2021/12/19 11:59:33;;;;;;;37.95;31.33;;;;;;;1.98;86.31;96764.59;6177765;23;20011;-61
2021/12/19 12:02:24;;;;;;;37.17;29.45;;;;;;;2.21;84.69;96764.56;6176635;23;20032;-61
2021/12/19 12:05:28;;;;;;;37.65;29.65;;;;;;;2.39;82.23;96761.19;6177360;23;20080;-61
2021/12/19 12:08:06;;;;;;;38.13;30.88;;;;;;;2.81;83.36;96756.81;6178609;23;20678;-61
2021/12/19 12:10:54;;;;;;;36.35;29.73;;;;;;;2.95;81.13;96755.34;6154735;23;20354;-61
2021/12/19 12:13:32;;;;;;;35.58;27.73;;;;;;;2.62;81.09;96755.94;6178606;23;20009;-60
2021/12/19 12:16:19;;;;;;;37.88;29.77;;;;;;;2.80;81.95;96751.66;6177951;23;20008;-61
2021/12/19 12:18:45;;;;;;;43.40;34.25;;;;;;;2.85;80.92;96739.28;6178081;23;20005;-61
2021/12/19 12:21:32;;;;;;;37.70;29.13;;;;;;;2.78;80.32;96733.53;6177812;23;20104;-60